sensor_id;sensor_type;location;lat;lon;timestamp;P1;durP1;ratioP1;P2;durP2;ratioP2
23394;SDS011;11870;53.084;18.206;2022-07-01T05:18:23;12.63;;;8.68;;
23394;SDS011;11870;53.084;18.206;2022-07-01T05:21:08;15.45;;;8.35;;
23394;SDS011;11870;53.084;18.206;2022-07-01T05:23:58;13.50;;;8.02;;
23394;SDS011;11870;53.084;18.206;2022-07-01T05:26:24;13.05;;;8.40;;
23394;SDS011;11870;53.084;18.206;2022-07-01T05:28:53;14.10;;;8.98;;
23394;SDS011;11870;53.084;18.206;2022-07-01T05:31:19;11.95;;;8.30;;
23394;SDS011;11870;53.084;18.206;2022-07-01T05:33:46;18.60;;;8.55;;
23394;SDS011;11870;53.084;18.206;2022-07-01T05:36:12;13.23;;;7.90;;
23394;SDS011;11870;53.084;18.206;2022-07-01T05:38:39;10.93;;;8.05;;
23394;SDS011;11870;53.084;18.206;2022-07-01T05:41:05;11.85;;;8.18;;
23394;SDS011;11870;53.084;18.206;2022-07-01T05:43:31;14.60;;;8.25;;
23394;SDS011;11870;53.084;18.206;2022-07-01T05:45:58;11.52;;;8.10;;
23394;SDS011;11870;53.084;18.206;2022-07-01T05:48:24;12.32;;;8.20;;
23394;SDS011;11870;53.084;18.206;2022-07-01T05:50:51;13.38;;;8.43;;
23394;SDS011;11870;53.084;18.206;2022-07-01T05:53:17;13.85;;;7.72;;
23394;SDS011;11870;53.084;18.206;2022-07-01T05:55:43;12.50;;;7.45;;
23394;SDS011;11870;53.084;18.206;2022-07-01T05:58:10;10.13;;;7.60;;
23394;SDS011;11870;53.084;18.206;2022-07-01T06:00:38;9.70;;;7.85;;
23394;SDS011;11870;53.084;18.206;2022-07-01T06:03:07;10.95;;;7.63;;
23394;SDS011;11870;53.084;18.206;2022-07-01T06:05:36;13.15;;;7.80;;
23394;SDS011;11870;53.084;18.206;2022-07-01T06:08:03;14.77;;;7.88;;
23394;SDS011;11870;53.084;18.206;2022-07-01T06:10:30;12.05;;;7.68;;
23394;SDS011;11870;53.084;18.206;2022-07-01T06:12:55;11.40;;;7.90;;
23394;SDS011;11870;53.084;18.206;2022-07-01T06:15:21;10.27;;;7.38;;
23394;SDS011;11870;53.084;18.206;2022-07-01T06:17:47;11.30;;;7.55;;
23394;SDS011;11870;53.084;18.206;2022-07-01T06:20:15;10.13;;;8.30;;
23394;SDS011;11870;53.084;18.206;2022-07-01T06:22:41;11.07;;;8.32;;
23394;SDS011;11870;53.084;18.206;2022-07-01T06:25:07;11.27;;;8.23;;
23394;SDS011;11870;53.084;18.206;2022-07-01T06:27:40;12.90;;;8.30;;
23394;SDS011;11870;53.084;18.206;2022-07-01T06:30:06;13.32;;;8.13;;
23394;SDS011;11870;53.084;18.206;2022-07-01T06:32:33;11.05;;;8.48;;
23394;SDS011;11870;53.084;18.206;2022-07-01T06:34:59;13.00;;;9.18;;
23394;SDS011;11870;53.084;18.206;2022-07-01T06:37:25;11.77;;;8.70;;
23394;SDS011;11870;53.084;18.206;2022-07-01T06:39:52;13.70;;;8.77;;
23394;SDS011;11870;53.084;18.206;2022-07-01T06:42:18;13.52;;;9.30;;
23394;SDS011;11870;53.084;18.206;2022-07-01T06:44:43;13.05;;;9.00;;
23394;SDS011;11870;53.084;18.206;2022-07-01T06:47:10;15.15;;;8.82;;
23394;SDS011;11870;53.084;18.206;2022-07-01T06:49:36;11.13;;;8.82;;
23394;SDS011;11870;53.084;18.206;2022-07-01T06:52:03;14.23;;;8.98;;
23394;SDS011;11870;53.084;18.206;2022-07-01T06:54:29;17.08;;;9.15;;
23394;SDS011;11870;53.084;18.206;2022-07-01T06:56:55;15.60;;;8.68;;
23394;SDS011;11870;53.084;18.206;2022-07-01T06:59:21;12.43;;;8.82;;
23394;SDS011;11870;53.084;18.206;2022-07-01T07:01:47;17.25;;;9.05;;
23394;SDS011;11870;53.084;18.206;2022-07-01T07:04:15;16.75;;;9.18;;
23394;SDS011;11870;53.084;18.206;2022-07-01T07:06:42;15.07;;;9.02;;
23394;SDS011;11870;53.084;18.206;2022-07-01T07:09:08;13.70;;;9.32;;
23394;SDS011;11870;53.084;18.206;2022-07-01T07:11:33;13.57;;;9.35;;
23394;SDS011;11870;53.084;18.206;2022-07-01T07:13:59;15.20;;;9.00;;
23394;SDS011;11870;53.084;18.206;2022-07-01T07:16:25;14.80;;;9.65;;
23394;SDS011;11870;53.084;18.206;2022-07-01T07:18:51;13.88;;;9.27;;
23394;SDS011;11870;53.084;18.206;2022-07-01T07:21:17;14.70;;;8.93;;
23394;SDS011;11870;53.084;18.206;2022-07-01T07:23:43;13.98;;;9.50;;
23394;SDS011;11870;53.084;18.206;2022-07-01T07:26:09;12.75;;;9.05;;
23394;SDS011;11870;53.084;18.206;2022-07-01T07:28:36;14.70;;;9.23;;
23394;SDS011;11870;53.084;18.206;2022-07-01T07:31:02;16.88;;;9.40;;
23394;SDS011;11870;53.084;18.206;2022-07-01T07:33:29;12.88;;;8.40;;
23394;SDS011;11870;53.084;18.206;2022-07-01T07:35:54;16.70;;;9.65;;
23394;SDS011;11870;53.084;18.206;2022-07-01T07:38:21;13.98;;;10.10;;
23394;SDS011;11870;53.084;18.206;2022-07-01T07:40:47;13.85;;;9.43;;
23394;SDS011;11870;53.084;18.206;2022-07-01T07:43:13;12.77;;;9.68;;
23394;SDS011;11870;53.084;18.206;2022-07-01T07:45:39;15.77;;;9.57;;
23394;SDS011;11870;53.084;18.206;2022-07-01T07:48:05;11.65;;;9.10;;
23394;SDS011;11870;53.084;18.206;2022-07-01T07:50:31;13.35;;;10.13;;
23394;SDS011;11870;53.084;18.206;2022-07-01T07:52:58;13.15;;;10.13;;
23394;SDS011;11870;53.084;18.206;2022-07-01T07:55:24;13.88;;;9.40;;
23394;SDS011;11870;53.084;18.206;2022-07-01T07:57:50;11.93;;;9.23;;
23394;SDS011;11870;53.084;18.206;2022-07-01T08:00:16;13.45;;;9.75;;
23394;SDS011;11870;53.084;18.206;2022-07-01T08:02:42;12.23;;;9.75;;
23394;SDS011;11870;53.084;18.206;2022-07-01T08:05:09;11.43;;;9.35;;
23394;SDS011;11870;53.084;18.206;2022-07-01T08:07:39;9.88;;;8.77;;
23394;SDS011;11870;53.084;18.206;2022-07-01T08:10:08;18.70;;;9.70;;
23394;SDS011;11870;53.084;18.206;2022-07-01T08:12:36;17.10;;;10.43;;
23394;SDS011;11870;53.084;18.206;2022-07-01T08:15:02;18.17;;;9.88;;
23394;SDS011;11870;53.084;18.206;2022-07-01T08:17:29;12.98;;;10.27;;
23394;SDS011;11870;53.084;18.206;2022-07-01T08:19:55;11.27;;;9.70;;
23394;SDS011;11870;53.084;18.206;2022-07-01T08:22:21;16.83;;;10.10;;
23394;SDS011;11870;53.084;18.206;2022-07-01T08:24:48;16.13;;;9.95;;
23394;SDS011;11870;53.084;18.206;2022-07-01T08:27:14;11.82;;;9.88;;
23394;SDS011;11870;53.084;18.206;2022-07-01T08:29:40;14.07;;;10.40;;
23394;SDS011;11870;53.084;18.206;2022-07-01T08:32:06;14.68;;;9.48;;
23394;SDS011;11870;53.084;18.206;2022-07-01T08:34:32;13.05;;;9.43;;
23394;SDS011;11870;53.084;18.206;2022-07-01T08:36:58;15.80;;;9.63;;
23394;SDS011;11870;53.084;18.206;2022-07-01T08:39:24;15.52;;;10.05;;
23394;SDS011;11870;53.084;18.206;2022-07-01T08:41:50;12.32;;;9.30;;
23394;SDS011;11870;53.084;18.206;2022-07-01T08:44:16;13.57;;;10.75;;
23394;SDS011;11870;53.084;18.206;2022-07-01T08:46:42;11.93;;;10.35;;
23394;SDS011;11870;53.084;18.206;2022-07-01T08:49:08;18.15;;;10.98;;
23394;SDS011;11870;53.084;18.206;2022-07-01T08:51:34;12.43;;;9.43;;
23394;SDS011;11870;53.084;18.206;2022-07-01T08:54:00;13.82;;;10.77;;
23394;SDS011;11870;53.084;18.206;2022-07-01T08:56:26;15.00;;;10.73;;
23394;SDS011;11870;53.084;18.206;2022-07-01T08:59:11;16.88;;;11.65;;
23394;SDS011;11870;53.084;18.206;2022-07-01T09:01:38;14.52;;;11.25;;
23394;SDS011;11870;53.084;18.206;2022-07-01T09:04:12;14.23;;;11.50;;
23394;SDS011;11870;53.084;18.206;2022-07-01T09:06:40;12.80;;;10.27;;
23394;SDS011;11870;53.084;18.206;2022-07-01T09:09:14;16.35;;;11.43;;
23394;SDS011;11870;53.084;18.206;2022-07-01T09:11:44;13.85;;;10.90;;
23394;SDS011;11870;53.084;18.206;2022-07-01T09:14:12;11.52;;;10.30;;
23394;SDS011;11870;53.084;18.206;2022-07-01T09:16:41;13.02;;;10.45;;
23394;SDS011;11870;53.084;18.206;2022-07-01T09:19:07;16.83;;;11.15;;
23394;SDS011;11870;53.084;18.206;2022-07-01T09:21:34;14.30;;;10.30;;
23394;SDS011;11870;53.084;18.206;2022-07-01T09:24:03;12.80;;;11.45;;
23394;SDS011;11870;53.084;18.206;2022-07-01T09:26:31;11.50;;;10.40;;
23394;SDS011;11870;53.084;18.206;2022-07-01T09:28:57;12.60;;;11.10;;
23394;SDS011;11870;53.084;18.206;2022-07-01T09:31:32;14.43;;;10.98;;
23394;SDS011;11870;53.084;18.206;2022-07-01T09:34:06;18.20;;;10.32;;
23394;SDS011;11870;53.084;18.206;2022-07-01T09:36:39;16.25;;;10.95;;
23394;SDS011;11870;53.084;18.206;2022-07-01T09:39:06;16.58;;;11.10;;
23394;SDS011;11870;53.084;18.206;2022-07-01T09:41:38;13.80;;;11.23;;
23394;SDS011;11870;53.084;18.206;2022-07-01T09:44:05;13.55;;;11.23;;
23394;SDS011;11870;53.084;18.206;2022-07-01T09:46:34;17.95;;;11.23;;
23394;SDS011;11870;53.084;18.206;2022-07-01T09:49:01;13.63;;;10.85;;
23394;SDS011;11870;53.084;18.206;2022-07-01T09:51:27;14.40;;;11.65;;
23394;SDS011;11870;53.084;18.206;2022-07-01T09:53:54;14.27;;;11.80;;
23394;SDS011;11870;53.084;18.206;2022-07-01T09:56:23;15.73;;;10.65;;
23394;SDS011;11870;53.084;18.206;2022-07-01T09:58:50;18.10;;;11.38;;
23394;SDS011;11870;53.084;18.206;2022-07-01T10:01:16;14.90;;;11.10;;
23394;SDS011;11870;53.084;18.206;2022-07-01T10:03:42;17.00;;;11.40;;
23394;SDS011;11870;53.084;18.206;2022-07-01T10:13:51;12.95;;;11.25;;
23394;SDS011;11870;53.084;18.206;2022-07-01T10:16:18;14.30;;;11.75;;
23394;SDS011;11870;53.084;18.206;2022-07-01T10:18:45;25.27;;;11.95;;
23394;SDS011;11870;53.084;18.206;2022-07-01T10:21:25;12.93;;;11.20;;
23394;SDS011;11870;53.084;18.206;2022-07-01T10:24:14;12.52;;;11.13;;
23394;SDS011;11870;53.084;18.206;2022-07-01T10:26:42;13.30;;;11.35;;
23394;SDS011;11870;53.084;18.206;2022-07-01T10:34:46;15.38;;;11.88;;
23394;SDS011;11870;53.084;18.206;2022-07-01T10:37:12;17.00;;;11.65;;
23394;SDS011;11870;53.084;18.206;2022-07-01T10:42:29;24.73;;;12.13;;
